sensor_id;sensor_type;location;lat;lon;timestamp;P1;durP1;ratioP1;P2;durP2;ratioP2
37917;SDS011;23749;51.410;21.130;2022-11-15T00:02:55;34.90;;;19.17;;
37917;SDS011;23749;51.410;21.130;2022-11-15T00:06:06;35.30;;;20.43;;
37917;SDS011;23749;51.410;21.130;2022-11-15T00:09:16;29.03;;;18.30;;
37917;SDS011;23749;51.410;21.130;2022-11-15T00:12:27;29.27;;;17.67;;
37917;SDS011;23749;51.410;21.130;2022-11-15T00:15:38;27.27;;;16.50;;
37917;SDS011;23749;51.410;21.130;2022-11-15T00:18:49;29.67;;;17.90;;
37917;SDS011;23749;51.410;21.130;2022-11-15T00:21:59;27.57;;;16.33;;
37917;SDS011;23749;51.410;21.130;2022-11-15T00:25:10;25.47;;;16.10;;
37917;SDS011;23749;51.410;21.130;2022-11-15T00:28:20;30.23;;;16.67;;
37917;SDS011;23749;51.410;21.130;2022-11-15T00:31:31;33.37;;;18.80;;
37917;SDS011;23749;51.410;21.130;2022-11-15T00:34:42;32.73;;;17.70;;
37917;SDS011;23749;51.410;21.130;2022-11-15T00:37:52;29.80;;;17.30;;
37917;SDS011;23749;51.410;21.130;2022-11-15T00:41:04;28.90;;;16.47;;
37917;SDS011;23749;51.410;21.130;2022-11-15T00:44:15;28.23;;;15.77;;
37917;SDS011;23749;51.410;21.130;2022-11-15T00:47:25;32.40;;;17.23;;
37917;SDS011;23749;51.410;21.130;2022-11-15T00:50:35;30.83;;;16.33;;
37917;SDS011;23749;51.410;21.130;2022-11-15T00:53:46;30.60;;;16.67;;
37917;SDS011;23749;51.410;21.130;2022-11-15T00:56:56;27.33;;;15.27;;
37917;SDS011;23749;51.410;21.130;2022-11-15T01:00:07;31.87;;;17.00;;
37917;SDS011;23749;51.410;21.130;2022-11-15T01:03:17;28.27;;;16.33;;
37917;SDS011;23749;51.410;21.130;2022-11-15T01:06:28;37.90;;;17.33;;
37917;SDS011;23749;51.410;21.130;2022-11-15T01:09:39;36.90;;;19.93;;
37917;SDS011;23749;51.410;21.130;2022-11-15T01:12:49;34.83;;;17.77;;
37917;SDS011;23749;51.410;21.130;2022-11-15T01:16:05;34.40;;;18.03;;
37917;SDS011;23749;51.410;21.130;2022-11-15T01:19:15;35.13;;;18.37;;
37917;SDS011;23749;51.410;21.130;2022-11-15T01:22:26;32.33;;;17.37;;
37917;SDS011;23749;51.410;21.130;2022-11-15T01:25:36;33.60;;;17.10;;
37917;SDS011;23749;51.410;21.130;2022-11-15T01:28:48;33.13;;;16.80;;
37917;SDS011;23749;51.410;21.130;2022-11-15T01:31:58;32.70;;;16.47;;
37917;SDS011;23749;51.410;21.130;2022-11-15T01:35:08;32.63;;;17.50;;
37917;SDS011;23749;51.410;21.130;2022-11-15T01:38:20;33.53;;;17.40;;
37917;SDS011;23749;51.410;21.130;2022-11-15T01:41:31;30.53;;;16.13;;
37917;SDS011;23749;51.410;21.130;2022-11-15T01:44:44;30.53;;;16.10;;
37917;SDS011;23749;51.410;21.130;2022-11-15T01:47:55;28.00;;;14.90;;
37917;SDS011;23749;51.410;21.130;2022-11-15T01:51:07;24.90;;;13.93;;
37917;SDS011;23749;51.410;21.130;2022-11-15T01:54:20;30.10;;;14.37;;
37917;SDS011;23749;51.410;21.130;2022-11-15T01:57:31;27.63;;;14.80;;
37917;SDS011;23749;51.410;21.130;2022-11-15T02:00:41;25.70;;;13.47;;
37917;SDS011;23749;51.410;21.130;2022-11-15T02:03:58;30.70;;;14.10;;
37917;SDS011;23749;51.410;21.130;2022-11-15T02:07:10;32.40;;;15.97;;
37917;SDS011;23749;51.410;21.130;2022-11-15T02:10:22;24.33;;;12.80;;
37917;SDS011;23749;51.410;21.130;2022-11-15T02:13:32;27.73;;;14.57;;
37917;SDS011;23749;51.410;21.130;2022-11-15T02:16:59;24.17;;;13.30;;
37917;SDS011;23749;51.410;21.130;2022-11-15T02:20:27;24.27;;;13.20;;
37917;SDS011;23749;51.410;21.130;2022-11-15T02:37:07;23.80;;;12.80;;
37917;SDS011;23749;51.410;21.130;2022-11-15T02:43:43;25.87;;;13.37;;
37917;SDS011;23749;51.410;21.130;2022-11-15T02:47:08;21.33;;;12.43;;
37917;SDS011;23749;51.410;21.130;2022-11-15T02:50:25;23.40;;;12.20;;
37917;SDS011;23749;51.410;21.130;2022-11-15T02:53:36;22.43;;;12.10;;
37917;SDS011;23749;51.410;21.130;2022-11-15T02:56:47;23.20;;;12.37;;
37917;SDS011;23749;51.410;21.130;2022-11-15T03:00:08;19.63;;;11.23;;
37917;SDS011;23749;51.410;21.130;2022-11-15T03:07:00;21.67;;;12.20;;
37917;SDS011;23749;51.410;21.130;2022-11-15T03:10:36;24.63;;;13.17;;
37917;SDS011;23749;51.410;21.130;2022-11-15T03:13:56;18.27;;;9.57;;
37917;SDS011;23749;51.410;21.130;2022-11-15T03:20:21;27.50;;;11.53;;
37917;SDS011;23749;51.410;21.130;2022-11-15T03:23:32;21.57;;;10.93;;
37917;SDS011;23749;51.410;21.130;2022-11-15T03:26:45;19.70;;;11.27;;
37917;SDS011;23749;51.410;21.130;2022-11-15T03:29:59;24.80;;;11.10;;
37917;SDS011;23749;51.410;21.130;2022-11-15T03:33:10;20.40;;;11.17;;
37917;SDS011;23749;51.410;21.130;2022-11-15T03:36:21;24.50;;;10.77;;
37917;SDS011;23749;51.410;21.130;2022-11-15T03:39:33;26.10;;;12.43;;
37917;SDS011;23749;51.410;21.130;2022-11-15T03:42:48;23.27;;;11.70;;
37917;SDS011;23749;51.410;21.130;2022-11-15T03:46:02;33.13;;;11.40;;
37917;SDS011;23749;51.410;21.130;2022-11-15T03:49:22;21.83;;;12.60;;
37917;SDS011;23749;51.410;21.130;2022-11-15T03:52:34;22.47;;;12.07;;
37917;SDS011;23749;51.410;21.130;2022-11-15T03:55:44;26.70;;;13.97;;
37917;SDS011;23749;51.410;21.130;2022-11-15T03:58:56;21.07;;;11.00;;
37917;SDS011;23749;51.410;21.130;2022-11-15T04:02:06;24.97;;;10.50;;
37917;SDS011;23749;51.410;21.130;2022-11-15T04:05:17;24.10;;;10.93;;
37917;SDS011;23749;51.410;21.130;2022-11-15T04:08:27;25.67;;;9.83;;
37917;SDS011;23749;51.410;21.130;2022-11-15T04:11:38;22.67;;;11.73;;
37917;SDS011;23749;51.410;21.130;2022-11-15T04:14:49;25.37;;;10.83;;
37917;SDS011;23749;51.410;21.130;2022-11-15T04:18:17;21.40;;;11.97;;
37917;SDS011;23749;51.410;21.130;2022-11-15T04:21:28;21.00;;;11.70;;
37917;SDS011;23749;51.410;21.130;2022-11-15T04:24:57;28.47;;;14.17;;
37917;SDS011;23749;51.410;21.130;2022-11-15T04:28:08;19.07;;;10.90;;
37917;SDS011;23749;51.410;21.130;2022-11-15T04:31:18;21.23;;;11.20;;
37917;SDS011;23749;51.410;21.130;2022-11-15T04:34:28;18.00;;;10.37;;
37917;SDS011;23749;51.410;21.130;2022-11-15T04:37:40;24.87;;;13.37;;
37917;SDS011;23749;51.410;21.130;2022-11-15T04:40:50;25.30;;;14.60;;
37917;SDS011;23749;51.410;21.130;2022-11-15T04:44:01;20.67;;;11.67;;
37917;SDS011;23749;51.410;21.130;2022-11-15T04:47:11;23.57;;;11.07;;
37917;SDS011;23749;51.410;21.130;2022-11-15T04:50:21;20.70;;;11.73;;
37917;SDS011;23749;51.410;21.130;2022-11-15T04:53:33;29.47;;;12.90;;
37917;SDS011;23749;51.410;21.130;2022-11-15T04:56:45;23.23;;;12.27;;
37917;SDS011;23749;51.410;21.130;2022-11-15T04:59:56;15.97;;;10.07;;
37917;SDS011;23749;51.410;21.130;2022-11-15T05:03:08;20.60;;;9.63;;
37917;SDS011;23749;51.410;21.130;2022-11-15T05:06:37;18.27;;;8.93;;
37917;SDS011;23749;51.410;21.130;2022-11-15T05:09:48;34.30;;;12.83;;
37917;SDS011;23749;51.410;21.130;2022-11-15T05:12:58;23.53;;;11.53;;
37917;SDS011;23749;51.410;21.130;2022-11-15T05:16:09;26.63;;;10.83;;
37917;SDS011;23749;51.410;21.130;2022-11-15T05:19:20;21.17;;;11.60;;
37917;SDS011;23749;51.410;21.130;2022-11-15T05:22:30;22.90;;;10.03;;
37917;SDS011;23749;51.410;21.130;2022-11-15T05:25:41;20.10;;;10.37;;
37917;SDS011;23749;51.410;21.130;2022-11-15T05:28:52;28.47;;;12.20;;
37917;SDS011;23749;51.410;21.130;2022-11-15T05:32:03;21.57;;;11.13;;
37917;SDS011;23749;51.410;21.130;2022-11-15T05:35:18;23.67;;;12.10;;
37917;SDS011;23749;51.410;21.130;2022-11-15T05:38:30;17.10;;;10.20;;
37917;SDS011;23749;51.410;21.130;2022-11-15T05:41:41;22.83;;;10.97;;
37917;SDS011;23749;51.410;21.130;2022-11-15T05:44:53;18.97;;;11.10;;
37917;SDS011;23749;51.410;21.130;2022-11-15T05:48:04;17.30;;;10.43;;
37917;SDS011;23749;51.410;21.130;2022-11-15T05:51:16;16.70;;;10.60;;
37917;SDS011;23749;51.410;21.130;2022-11-15T05:54:27;19.40;;;11.50;;
37917;SDS011;23749;51.410;21.130;2022-11-15T05:57:37;21.03;;;12.30;;
37917;SDS011;23749;51.410;21.130;2022-11-15T06:00:48;20.83;;;13.07;;
37917;SDS011;23749;51.410;21.130;2022-11-15T06:03:59;21.77;;;12.53;;
37917;SDS011;23749;51.410;21.130;2022-11-15T06:07:10;16.80;;;10.33;;
37917;SDS011;23749;51.410;21.130;2022-11-15T06:10:20;18.20;;;10.43;;
37917;SDS011;23749;51.410;21.130;2022-11-15T06:13:32;24.47;;;12.37;;
37917;SDS011;23749;51.410;21.130;2022-11-15T06:16:43;16.90;;;10.07;;
37917;SDS011;23749;51.410;21.130;2022-11-15T06:19:53;14.97;;;10.10;;
37917;SDS011;23749;51.410;21.130;2022-11-15T06:23:04;22.47;;;10.77;;
37917;SDS011;23749;51.410;21.130;2022-11-15T06:26:15;15.23;;;9.60;;
37917;SDS011;23749;51.410;21.130;2022-11-15T06:29:26;15.30;;;10.03;;
37917;SDS011;23749;51.410;21.130;2022-11-15T06:32:36;16.20;;;10.43;;
37917;SDS011;23749;51.410;21.130;2022-11-15T06:35:48;15.10;;;9.47;;
37917;SDS011;23749;51.410;21.130;2022-11-15T06:38:58;15.67;;;10.77;;
37917;SDS011;23749;51.410;21.130;2022-11-15T06:42:08;23.03;;;11.60;;
37917;SDS011;23749;51.410;21.130;2022-11-15T06:45:19;23.00;;;11.83;;
37917;SDS011;23749;51.410;21.130;2022-11-15T06:48:29;23.97;;;11.10;;
37917;SDS011;23749;51.410;21.130;2022-11-15T06:51:40;29.13;;;13.53;;
37917;SDS011;23749;51.410;21.130;2022-11-15T06:54:50;22.93;;;12.67;;
37917;SDS011;23749;51.410;21.130;2022-11-15T06:58:00;23.20;;;13.17;;
37917;SDS011;23749;51.410;21.130;2022-11-15T07:01:12;25.37;;;14.23;;
37917;SDS011;23749;51.410;21.130;2022-11-15T07:04:23;19.57;;;11.17;;
37917;SDS011;23749;51.410;21.130;2022-11-15T07:07:35;17.70;;;10.93;;
37917;SDS011;23749;51.410;21.130;2022-11-15T07:10:45;16.43;;;11.07;;
37917;SDS011;23749;51.410;21.130;2022-11-15T07:13:55;16.13;;;10.07;;
37917;SDS011;23749;51.410;21.130;2022-11-15T07:17:07;19.20;;;12.67;;
37917;SDS011;23749;51.410;21.130;2022-11-15T07:20:17;18.30;;;11.17;;
37917;SDS011;23749;51.410;21.130;2022-11-15T07:23:28;18.13;;;11.23;;
37917;SDS011;23749;51.410;21.130;2022-11-15T07:26:38;17.03;;;11.53;;
37917;SDS011;23749;51.410;21.130;2022-11-15T07:29:49;18.33;;;12.53;;
37917;SDS011;23749;51.410;21.130;2022-11-15T07:33:00;25.03;;;15.03;;
37917;SDS011;23749;51.410;21.130;2022-11-15T07:36:11;15.97;;;10.70;;
37917;SDS011;23749;51.410;21.130;2022-11-15T07:39:21;14.63;;;9.73;;
37917;SDS011;23749;51.410;21.130;2022-11-15T07:42:31;18.53;;;11.30;;
37917;SDS011;23749;51.410;21.130;2022-11-15T07:46:04;20.77;;;12.17;;
37917;SDS011;23749;51.410;21.130;2022-11-15T07:49:15;16.80;;;10.90;;
37917;SDS011;23749;51.410;21.130;2022-11-15T07:52:26;19.40;;;12.23;;
37917;SDS011;23749;51.410;21.130;2022-11-15T07:55:36;20.13;;;13.37;;
37917;SDS011;23749;51.410;21.130;2022-11-15T07:58:46;21.40;;;14.53;;
37917;SDS011;23749;51.410;21.130;2022-11-15T08:01:57;19.87;;;13.30;;
37917;SDS011;23749;51.410;21.130;2022-11-15T08:05:07;18.47;;;12.07;;
37917;SDS011;23749;51.410;21.130;2022-11-15T08:08:18;21.27;;;13.07;;
37917;SDS011;23749;51.410;21.130;2022-11-15T08:11:29;23.33;;;14.07;;
37917;SDS011;23749;51.410;21.130;2022-11-15T08:14:40;22.93;;;14.20;;
37917;SDS011;23749;51.410;21.130;2022-11-15T08:17:58;25.97;;;15.87;;
37917;SDS011;23749;51.410;21.130;2022-11-15T08:21:09;18.37;;;12.77;;
37917;SDS011;23749;51.410;21.130;2022-11-15T08:24:20;23.33;;;14.37;;
37917;SDS011;23749;51.410;21.130;2022-11-15T08:27:31;23.23;;;14.53;;
37917;SDS011;23749;51.410;21.130;2022-11-15T08:30:41;28.00;;;16.43;;
37917;SDS011;23749;51.410;21.130;2022-11-15T08:33:52;23.53;;;15.00;;
37917;SDS011;23749;51.410;21.130;2022-11-15T08:37:02;23.80;;;16.00;;
37917;SDS011;23749;51.410;21.130;2022-11-15T08:40:13;22.77;;;15.50;;
37917;SDS011;23749;51.410;21.130;2022-11-15T08:43:23;20.27;;;14.37;;
37917;SDS011;23749;51.410;21.130;2022-11-15T08:46:34;17.43;;;12.87;;
37917;SDS011;23749;51.410;21.130;2022-11-15T08:49:45;17.93;;;13.00;;
37917;SDS011;23749;51.410;21.130;2022-11-15T08:52:55;28.20;;;17.87;;
37917;SDS011;23749;51.410;21.130;2022-11-15T08:56:10;18.50;;;12.97;;
37917;SDS011;23749;51.410;21.130;2022-11-15T08:59:20;18.63;;;13.57;;
37917;SDS011;23749;51.410;21.130;2022-11-15T09:02:30;20.53;;;13.60;;
37917;SDS011;23749;51.410;21.130;2022-11-15T09:05:41;18.83;;;11.87;;
37917;SDS011;23749;51.410;21.130;2022-11-15T09:08:52;19.00;;;12.97;;
37917;SDS011;23749;51.410;21.130;2022-11-15T09:12:03;17.50;;;12.53;;
37917;SDS011;23749;51.410;21.130;2022-11-15T09:15:14;19.47;;;14.33;;
37917;SDS011;23749;51.410;21.130;2022-11-15T09:18:24;20.90;;;14.47;;
37917;SDS011;23749;51.410;21.130;2022-11-15T09:21:35;16.67;;;12.27;;
37917;SDS011;23749;51.410;21.130;2022-11-15T09:24:45;17.33;;;12.90;;
37917;SDS011;23749;51.410;21.130;2022-11-15T09:27:55;18.77;;;12.57;;
37917;SDS011;23749;51.410;21.130;2022-11-15T09:31:06;19.30;;;13.87;;
37917;SDS011;23749;51.410;21.130;2022-11-15T09:34:17;19.60;;;13.87;;
37917;SDS011;23749;51.410;21.130;2022-11-15T09:37:27;16.37;;;12.90;;
37917;SDS011;23749;51.410;21.130;2022-11-15T09:40:38;16.73;;;12.43;;
37917;SDS011;23749;51.410;21.130;2022-11-15T09:44:11;17.57;;;13.03;;
37917;SDS011;23749;51.410;21.130;2022-11-15T09:47:37;21.23;;;14.10;;
37917;SDS011;23749;51.410;21.130;2022-11-15T09:50:49;17.97;;;12.80;;
37917;SDS011;23749;51.410;21.130;2022-11-15T09:54:05;18.00;;;12.03;;
37917;SDS011;23749;51.410;21.130;2022-11-15T10:00:42;17.20;;;13.00;;
37917;SDS011;23749;51.410;21.130;2022-11-15T10:03:54;16.70;;;12.37;;
37917;SDS011;23749;51.410;21.130;2022-11-15T10:07:25;16.87;;;13.13;;
37917;SDS011;23749;51.410;21.130;2022-11-15T10:10:44;17.13;;;13.33;;
37917;SDS011;23749;51.410;21.130;2022-11-15T10:14:17;17.90;;;13.83;;
37917;SDS011;23749;51.410;21.130;2022-11-15T10:17:30;19.77;;;13.87;;
37917;SDS011;23749;51.410;21.130;2022-11-15T10:20:48;18.50;;;14.20;;
37917;SDS011;23749;51.410;21.130;2022-11-15T10:23:58;20.03;;;14.97;;
37917;SDS011;23749;51.410;21.130;2022-11-15T10:27:10;18.03;;;14.30;;
37917;SDS011;23749;51.410;21.130;2022-11-15T10:30:21;16.57;;;12.50;;
37917;SDS011;23749;51.410;21.130;2022-11-15T10:33:32;17.30;;;13.43;;
37917;SDS011;23749;51.410;21.130;2022-11-15T10:36:44;18.57;;;14.37;;
37917;SDS011;23749;51.410;21.130;2022-11-15T10:43:24;18.80;;;14.43;;
37917;SDS011;23749;51.410;21.130;2022-11-15T10:46:38;20.60;;;15.27;;
37917;SDS011;23749;51.410;21.130;2022-11-15T10:49:57;20.43;;;15.73;;
37917;SDS011;23749;51.410;21.130;2022-11-15T10:56:36;20.30;;;15.87;;
37917;SDS011;23749;51.410;21.130;2022-11-15T11:03:34;22.47;;;15.40;;
37917;SDS011;23749;51.410;21.130;2022-11-15T11:06:48;20.23;;;15.83;;
37917;SDS011;23749;51.410;21.130;2022-11-15T11:10:01;20.37;;;15.67;;
37917;SDS011;23749;51.410;21.130;2022-11-15T11:13:20;21.07;;;15.67;;
37917;SDS011;23749;51.410;21.130;2022-11-15T11:19:51;24.13;;;17.20;;
37917;SDS011;23749;51.410;21.130;2022-11-15T11:32:54;22.47;;;16.50;;
37917;SDS011;23749;51.410;21.130;2022-11-15T11:49:10;22.00;;;17.10;;
37917;SDS011;23749;51.410;21.130;2022-11-15T11:55:39;22.30;;;16.50;;
37917;SDS011;23749;51.410;21.130;2022-11-15T11:58:52;22.10;;;17.00;;
37917;SDS011;23749;51.410;21.130;2022-11-15T12:05:44;22.37;;;16.60;;
37917;SDS011;23749;51.410;21.130;2022-11-15T12:12:31;24.80;;;16.97;;
37917;SDS011;23749;51.410;21.130;2022-11-15T12:19:01;25.87;;;17.80;;
37917;SDS011;23749;51.410;21.130;2022-11-15T12:22:15;22.40;;;16.20;;
37917;SDS011;23749;51.410;21.130;2022-11-15T12:25:32;22.03;;;15.47;;
37917;SDS011;23749;51.410;21.130;2022-11-15T12:28:54;26.63;;;18.27;;
37917;SDS011;23749;51.410;21.130;2022-11-15T12:32:05;26.70;;;18.47;;
37917;SDS011;23749;51.410;21.130;2022-11-15T12:39:02;26.20;;;18.57;;
37917;SDS011;23749;51.410;21.130;2022-11-15T12:45:25;24.27;;;18.07;;
37917;SDS011;23749;51.410;21.130;2022-11-15T12:55:01;23.10;;;17.60;;
37917;SDS011;23749;51.410;21.130;2022-11-15T12:58:28;20.90;;;16.23;;
37917;SDS011;23749;51.410;21.130;2022-11-15T13:08:40;28.87;;;18.70;;
37917;SDS011;23749;51.410;21.130;2022-11-15T13:11:50;27.70;;;19.23;;
37917;SDS011;23749;51.410;21.130;2022-11-15T13:15:07;24.10;;;18.10;;
37917;SDS011;23749;51.410;21.130;2022-11-15T13:18:42;21.77;;;17.03;;
37917;SDS011;23749;51.410;21.130;2022-11-15T13:21:53;25.13;;;18.57;;
37917;SDS011;23749;51.410;21.130;2022-11-15T13:28:44;21.63;;;16.90;;
37917;SDS011;23749;51.410;21.130;2022-11-15T13:31:56;22.63;;;17.00;;
37917;SDS011;23749;51.410;21.130;2022-11-15T13:35:06;22.00;;;16.07;;
37917;SDS011;23749;51.410;21.130;2022-11-15T13:38:30;21.60;;;16.27;;
37917;SDS011;23749;51.410;21.130;2022-11-15T13:41:45;25.93;;;19.07;;
37917;SDS011;23749;51.410;21.130;2022-11-15T13:45:00;24.47;;;17.40;;
37917;SDS011;23749;51.410;21.130;2022-11-15T13:48:10;33.57;;;23.73;;
37917;SDS011;23749;51.410;21.130;2022-11-15T13:54:35;30.27;;;21.93;;
37917;SDS011;23749;51.410;21.130;2022-11-15T13:57:48;32.23;;;22.60;;
37917;SDS011;23749;51.410;21.130;2022-11-15T14:01:01;29.73;;;21.20;;
37917;SDS011;23749;51.410;21.130;2022-11-15T14:04:13;27.77;;;20.20;;
37917;SDS011;23749;51.410;21.130;2022-11-15T14:07:25;26.57;;;20.10;;
37917;SDS011;23749;51.410;21.130;2022-11-15T14:10:36;32.53;;;22.10;;
37917;SDS011;23749;51.410;21.130;2022-11-15T14:17:18;29.77;;;20.73;;
37917;SDS011;23749;51.410;21.130;2022-11-15T14:20:30;32.00;;;21.93;;
37917;SDS011;23749;51.410;21.130;2022-11-15T14:23:42;31.93;;;22.60;;
37917;SDS011;23749;51.410;21.130;2022-11-15T14:26:52;48.57;;;33.70;;
37917;SDS011;23749;51.410;21.130;2022-11-15T14:30:03;84.87;;;50.80;;
37917;SDS011;23749;51.410;21.130;2022-11-15T14:33:18;108.07;;;56.40;;
37917;SDS011;23749;51.410;21.130;2022-11-15T14:36:30;95.03;;;52.37;;
37917;SDS011;23749;51.410;21.130;2022-11-15T14:39:40;94.10;;;52.53;;
37917;SDS011;23749;51.410;21.130;2022-11-15T14:42:51;58.17;;;31.70;;
37917;SDS011;23749;51.410;21.130;2022-11-15T14:46:01;44.43;;;29.20;;
37917;SDS011;23749;51.410;21.130;2022-11-15T14:49:11;39.07;;;26.67;;
37917;SDS011;23749;51.410;21.130;2022-11-15T14:52:23;45.60;;;29.73;;
37917;SDS011;23749;51.410;21.130;2022-11-15T14:55:35;47.10;;;33.83;;
37917;SDS011;23749;51.410;21.130;2022-11-15T14:58:46;43.63;;;30.07;;
37917;SDS011;23749;51.410;21.130;2022-11-15T15:01:56;41.10;;;27.00;;
37917;SDS011;23749;51.410;21.130;2022-11-15T15:05:20;39.50;;;26.67;;
37917;SDS011;23749;51.410;21.130;2022-11-15T15:08:30;35.00;;;24.90;;
37917;SDS011;23749;51.410;21.130;2022-11-15T15:11:40;44.97;;;30.40;;
37917;SDS011;23749;51.410;21.130;2022-11-15T15:14:51;82.87;;;42.63;;
37917;SDS011;23749;51.410;21.130;2022-11-15T15:18:01;58.73;;;39.00;;
37917;SDS011;23749;51.410;21.130;2022-11-15T15:21:22;53.13;;;35.97;;
37917;SDS011;23749;51.410;21.130;2022-11-15T15:24:33;57.77;;;34.50;;
37917;SDS011;23749;51.410;21.130;2022-11-15T15:27:44;57.50;;;34.03;;
37917;SDS011;23749;51.410;21.130;2022-11-15T15:30:54;73.73;;;37.27;;
37917;SDS011;23749;51.410;21.130;2022-11-15T15:34:05;204.20;;;119.30;;
37917;SDS011;23749;51.410;21.130;2022-11-15T15:37:25;133.73;;;81.63;;
37917;SDS011;23749;51.410;21.130;2022-11-15T15:40:35;117.80;;;74.20;;
37917;SDS011;23749;51.410;21.130;2022-11-15T15:43:46;81.23;;;47.10;;
37917;SDS011;23749;51.410;21.130;2022-11-15T15:46:57;89.20;;;54.57;;
37917;SDS011;23749;51.410;21.130;2022-11-15T15:53:27;150.47;;;96.00;;
37917;SDS011;23749;51.410;21.130;2022-11-15T15:56:37;112.60;;;71.67;;
37917;SDS011;23749;51.410;21.130;2022-11-15T15:59:47;124.37;;;73.67;;
37917;SDS011;23749;51.410;21.130;2022-11-15T16:02:58;132.17;;;79.73;;
37917;SDS011;23749;51.410;21.130;2022-11-15T16:09:37;204.73;;;117.83;;
37917;SDS011;23749;51.410;21.130;2022-11-15T16:13:05;230.70;;;131.50;;
37917;SDS011;23749;51.410;21.130;2022-11-15T16:16:16;199.40;;;120.53;;
37917;SDS011;23749;51.410;21.130;2022-11-15T16:19:26;245.03;;;143.17;;
37917;SDS011;23749;51.410;21.130;2022-11-15T16:22:36;212.57;;;125.20;;
37917;SDS011;23749;51.410;21.130;2022-11-15T16:25:47;175.30;;;110.33;;
37917;SDS011;23749;51.410;21.130;2022-11-15T16:28:58;171.47;;;101.37;;
37917;SDS011;23749;51.410;21.130;2022-11-15T16:32:08;123.87;;;73.87;;
37917;SDS011;23749;51.410;21.130;2022-11-15T16:35:19;110.07;;;66.00;;
37917;SDS011;23749;51.410;21.130;2022-11-15T16:38:29;95.80;;;57.70;;
37917;SDS011;23749;51.410;21.130;2022-11-15T16:41:40;156.37;;;83.30;;
37917;SDS011;23749;51.410;21.130;2022-11-15T16:44:53;139.07;;;77.50;;
37917;SDS011;23749;51.410;21.130;2022-11-15T16:48:03;129.00;;;72.87;;
37917;SDS011;23749;51.410;21.130;2022-11-15T16:51:14;161.00;;;87.63;;
37917;SDS011;23749;51.410;21.130;2022-11-15T16:54:24;142.40;;;78.87;;
37917;SDS011;23749;51.410;21.130;2022-11-15T16:57:34;142.77;;;82.40;;
37917;SDS011;23749;51.410;21.130;2022-11-15T17:00:45;135.67;;;77.40;;
37917;SDS011;23749;51.410;21.130;2022-11-15T17:03:59;133.70;;;70.60;;
37917;SDS011;23749;51.410;21.130;2022-11-15T17:07:21;97.27;;;55.40;;
37917;SDS011;23749;51.410;21.130;2022-11-15T17:10:32;99.40;;;56.87;;
37917;SDS011;23749;51.410;21.130;2022-11-15T17:13:43;98.53;;;54.40;;
37917;SDS011;23749;51.410;21.130;2022-11-15T17:16:53;93.60;;;53.90;;
37917;SDS011;23749;51.410;21.130;2022-11-15T17:20:04;74.37;;;43.20;;
37917;SDS011;23749;51.410;21.130;2022-11-15T17:23:18;75.23;;;41.03;;
37917;SDS011;23749;51.410;21.130;2022-11-15T17:26:29;67.80;;;41.53;;
37917;SDS011;23749;51.410;21.130;2022-11-15T17:29:39;96.80;;;53.43;;
37917;SDS011;23749;51.410;21.130;2022-11-15T17:32:50;79.67;;;45.43;;
37917;SDS011;23749;51.410;21.130;2022-11-15T17:36:02;66.47;;;37.30;;
37917;SDS011;23749;51.410;21.130;2022-11-15T17:39:13;92.83;;;50.10;;
37917;SDS011;23749;51.410;21.130;2022-11-15T17:42:24;68.00;;;39.07;;
37917;SDS011;23749;51.410;21.130;2022-11-15T17:45:39;69.70;;;38.93;;
37917;SDS011;23749;51.410;21.130;2022-11-15T17:48:49;90.97;;;49.27;;
37917;SDS011;23749;51.410;21.130;2022-11-15T17:51:59;99.93;;;52.17;;
37917;SDS011;23749;51.410;21.130;2022-11-15T17:55:10;87.63;;;45.00;;
37917;SDS011;23749;51.410;21.130;2022-11-15T17:58:20;85.70;;;38.10;;
37917;SDS011;23749;51.410;21.130;2022-11-15T18:01:31;117.13;;;35.50;;
37917;SDS011;23749;51.410;21.130;2022-11-15T18:04:43;87.23;;;28.17;;
37917;SDS011;23749;51.410;21.130;2022-11-15T18:07:53;71.93;;;24.10;;
37917;SDS011;23749;51.410;21.130;2022-11-15T18:14:14;84.77;;;28.90;;
37917;SDS011;23749;51.410;21.130;2022-11-15T18:17:25;95.53;;;35.70;;
37917;SDS011;23749;51.410;21.130;2022-11-15T18:20:35;73.73;;;31.37;;
37917;SDS011;23749;51.410;21.130;2022-11-15T18:23:46;94.27;;;36.40;;
37917;SDS011;23749;51.410;21.130;2022-11-15T18:26:57;153.00;;;51.30;;
37917;SDS011;23749;51.410;21.130;2022-11-15T18:30:07;120.63;;;50.80;;
37917;SDS011;23749;51.410;21.130;2022-11-15T18:33:19;151.77;;;50.30;;
37917;SDS011;23749;51.410;21.130;2022-11-15T18:36:30;204.27;;;63.33;;
37917;SDS011;23749;51.410;21.130;2022-11-15T18:39:40;207.60;;;54.13;;
37917;SDS011;23749;51.410;21.130;2022-11-15T18:42:51;152.70;;;49.93;;
37917;SDS011;23749;51.410;21.130;2022-11-15T18:46:02;121.60;;;41.93;;
37917;SDS011;23749;51.410;21.130;2022-11-15T18:49:13;123.67;;;36.10;;
37917;SDS011;23749;51.410;21.130;2022-11-15T18:52:25;105.87;;;35.40;;
37917;SDS011;23749;51.410;21.130;2022-11-15T18:55:35;99.23;;;32.13;;
37917;SDS011;23749;51.410;21.130;2022-11-15T18:58:48;164.60;;;54.50;;
37917;SDS011;23749;51.410;21.130;2022-11-15T19:01:58;126.17;;;38.40;;
37917;SDS011;23749;51.410;21.130;2022-11-15T19:05:09;121.03;;;36.70;;
37917;SDS011;23749;51.410;21.130;2022-11-15T19:08:19;132.30;;;50.60;;
37917;SDS011;23749;51.410;21.130;2022-11-15T19:11:32;81.13;;;26.60;;
37917;SDS011;23749;51.410;21.130;2022-11-15T19:14:44;64.87;;;26.53;;
37917;SDS011;23749;51.410;21.130;2022-11-15T19:17:54;80.37;;;35.07;;
37917;SDS011;23749;51.410;21.130;2022-11-15T19:21:06;80.17;;;31.67;;
37917;SDS011;23749;51.410;21.130;2022-11-15T19:24:17;71.30;;;25.87;;
37917;SDS011;23749;51.410;21.130;2022-11-15T19:27:27;91.60;;;41.80;;
37917;SDS011;23749;51.410;21.130;2022-11-15T19:30:37;59.77;;;22.87;;
37917;SDS011;23749;51.410;21.130;2022-11-15T19:33:49;80.87;;;29.53;;
37917;SDS011;23749;51.410;21.130;2022-11-15T19:37:00;65.60;;;25.20;;
37917;SDS011;23749;51.410;21.130;2022-11-15T19:40:12;51.80;;;18.57;;
37917;SDS011;23749;51.410;21.130;2022-11-15T19:43:22;58.83;;;20.13;;
37917;SDS011;23749;51.410;21.130;2022-11-15T19:46:33;118.90;;;26.60;;
37917;SDS011;23749;51.410;21.130;2022-11-15T19:49:43;66.47;;;24.53;;
37917;SDS011;23749;51.410;21.130;2022-11-15T19:52:55;55.67;;;25.00;;
37917;SDS011;23749;51.410;21.130;2022-11-15T19:56:06;68.97;;;28.13;;
37917;SDS011;23749;51.410;21.130;2022-11-15T19:59:17;64.10;;;26.87;;
37917;SDS011;23749;51.410;21.130;2022-11-15T20:02:30;60.30;;;23.43;;
37917;SDS011;23749;51.410;21.130;2022-11-15T20:05:45;61.90;;;28.47;;
37917;SDS011;23749;51.410;21.130;2022-11-15T20:08:55;65.87;;;27.47;;
37917;SDS011;23749;51.410;21.130;2022-11-15T20:12:06;71.30;;;32.93;;
37917;SDS011;23749;51.410;21.130;2022-11-15T20:15:16;121.93;;;43.67;;
37917;SDS011;23749;51.410;21.130;2022-11-15T20:18:27;85.90;;;32.53;;
37917;SDS011;23749;51.410;21.130;2022-11-15T20:21:37;109.30;;;33.77;;
37917;SDS011;23749;51.410;21.130;2022-11-15T20:24:48;107.20;;;34.43;;